createdAt,value
2019-02-10T00:00:42.579Z,74.19
2019-02-10T00:03:11.609Z,74.88
2019-02-10T00:05:41.123Z,74.88
2019-02-10T00:08:11.005Z,74.82
2019-02-10T00:10:41.336Z,74.35
2019-02-10T00:13:35.323Z,74.81
2019-02-10T00:16:22.335Z,75.08
2019-02-10T00:18:52.122Z,75.60
2019-02-10T00:21:22.009Z,75.91
2019-02-10T00:23:51.688Z,75.73
2019-02-10T00:26:20.699Z,75.73
2019-02-10T00:28:50.646Z,75.73
2019-02-10T00:31:19.647Z,76.04
2019-02-10T00:33:48.532Z,76.19
2019-02-10T00:36:18.314Z,74.33
2019-02-10T00:38:48.152Z,74.33
2019-02-10T00:41:17.822Z,74.66
2019-02-10T00:43:47.646Z,74.45
2019-02-10T00:46:17.464Z,74.05
2019-02-10T00:48:47.440Z,74.17
2019-02-10T00:51:17.665Z,74.17
2019-02-10T00:53:46.763Z,74.90
2019-02-10T00:56:15.463Z,75.11
2019-02-10T00:58:45.567Z,74.41
2019-02-10T01:01:15.311Z,74.41
2019-02-10T01:03:45.050Z,74.55
2019-02-10T01:06:14.823Z,74.27
2019-02-10T01:08:44.672Z,74.97
2019-02-10T01:11:14.743Z,74.99
2019-02-10T01:13:44.881Z,74.50
2019-02-10T01:16:14.650Z,74.87
2019-02-10T01:19:09.052Z,76.03
2019-02-10T01:21:45.315Z,76.03
2019-02-10T01:24:15.050Z,76.44
2019-02-10T01:26:45.049Z,77.18
2019-02-10T01:29:15.047Z,76.95
2019-02-10T01:31:46.008Z,77.00
2019-02-10T01:34:15.603Z,77.31
2019-02-10T01:36:49.851Z,77.49
2019-02-10T01:39:18.336Z,77.46
2019-02-10T01:41:48.314Z,77.52
2019-02-10T01:44:18.511Z,77.34
2019-02-10T01:46:48.128Z,77.60
2019-02-10T01:49:17.846Z,75.68
2019-02-10T01:51:47.690Z,75.45
2019-02-10T01:54:17.319Z,76.42
2019-02-10T01:56:47.462Z,76.22
2019-02-10T01:59:17.512Z,76.65
2019-02-10T02:01:47.216Z,76.73
2019-02-10T02:04:17.015Z,76.67
2019-02-10T02:06:47.151Z,77.03
2019-02-10T02:09:16.662Z,77.24
2019-02-10T02:11:46.641Z,77.23
2019-02-10T02:14:15.558Z,77.05
2019-02-10T02:16:46.052Z,76.42
2019-02-10T02:19:15.644Z,76.42
2019-02-10T02:21:45.524Z,76.92
2019-02-10T02:24:15.539Z,76.76
2019-02-10T02:26:45.320Z,76.76
2019-02-10T02:29:14.934Z,76.93
2019-02-10T02:31:44.615Z,76.71
2019-02-10T02:34:14.107Z,75.52
2019-02-10T02:36:43.631Z,75.52
2019-02-10T02:39:13.517Z,75.57
2019-02-10T02:41:43.650Z,75.14
2019-02-10T02:44:13.452Z,75.14
2019-02-10T02:46:43.307Z,74.97
2019-02-10T02:49:12.796Z,74.97
2019-02-10T02:51:42.663Z,75.41
2019-02-10T02:54:11.870Z,75.16
2019-02-10T02:56:41.621Z,74.86
2019-02-10T02:59:10.840Z,73.91
2019-02-10T03:01:40.525Z,73.59
2019-02-10T03:04:10.095Z,73.26
2019-02-10T03:06:46.191Z,73.28
2019-02-10T03:09:16.527Z,73.33
2019-02-10T03:11:46.109Z,74.65
2019-02-10T03:14:17.064Z,74.65
2019-02-10T03:16:47.030Z,75.16
2019-02-10T03:19:16.979Z,75.48
2019-02-10T03:21:46.979Z,75.61
2019-02-10T03:24:16.581Z,75.53
2019-02-10T03:26:46.334Z,75.88
2019-02-10T03:29:15.921Z,75.88
2019-02-10T03:31:45.558Z,74.56
2019-02-10T03:34:15.040Z,73.51
2019-02-10T03:36:44.515Z,73.73
2019-02-10T03:39:14.030Z,74.19
2019-02-10T03:44:27.319Z,73.40
2019-02-10T03:46:56.638Z,73.24
2019-02-10T03:53:26.779Z,74.27
2019-02-10T03:55:56.578Z,74.52
2019-02-10T03:58:25.726Z,74.51
2019-02-10T04:00:54.979Z,74.20
2019-02-10T04:03:24.514Z,74.43
2019-02-10T04:05:54.179Z,74.98
2019-02-10T04:08:23.808Z,75.33
2019-02-10T04:10:53.319Z,75.14
2019-02-10T04:13:23.111Z,75.51
2019-02-10T04:15:53.166Z,75.59
2019-02-10T04:18:22.791Z,75.61
2019-02-10T04:20:52.632Z,75.62
2019-02-10T04:23:22.177Z,74.88
2019-02-10T04:25:51.839Z,74.88
2019-02-10T04:28:21.164Z,75.20
2019-02-10T04:30:51.319Z,75.75
2019-02-10T04:33:21.445Z,75.30
2019-02-10T04:35:51.123Z,75.79
2019-02-10T04:38:20.851Z,75.44
2019-02-10T04:40:50.635Z,75.35
2019-02-10T04:43:19.274Z,74.23
2019-02-10T04:45:48.833Z,74.66
2019-02-10T04:48:18.654Z,75.28
2019-02-10T04:50:47.486Z,75.36
2019-02-10T04:53:17.529Z,73.46
2019-02-10T04:56:14.437Z,74.17
2019-02-10T04:58:44.053Z,74.17
2019-02-10T05:01:13.795Z,74.70
2019-02-10T05:03:42.537Z,75.07
2019-02-10T05:06:12.520Z,73.98
2019-02-10T05:08:42.460Z,73.98
2019-02-10T05:11:12.108Z,73.14
2019-02-10T05:13:41.809Z,74.00
2019-02-10T05:16:11.521Z,74.63
2019-02-10T05:18:41.319Z,74.71
2019-02-10T05:21:12.177Z,74.71
2019-02-10T05:23:41.805Z,74.40
2019-02-10T05:26:11.496Z,74.76
2019-02-10T05:28:41.481Z,74.93
2019-02-10T05:31:10.693Z,75.00
2019-02-10T05:33:39.728Z,75.64
2019-02-10T05:36:08.293Z,75.87
2019-02-10T05:38:37.825Z,76.04
2019-02-10T05:41:07.644Z,75.83
2019-02-10T05:43:37.429Z,75.79
2019-02-10T05:46:07.010Z,75.79
2019-02-10T05:48:36.630Z,75.86
2019-02-10T05:51:06.135Z,76.11
2019-02-10T05:53:35.808Z,76.11
2019-02-10T05:56:05.541Z,76.43
2019-02-10T05:58:35.335Z,76.34
2019-02-10T06:02:27.761Z,76.35
2019-02-10T06:05:03.027Z,77.07
2019-02-10T06:07:32.972Z,76.92
2019-02-10T06:10:02.895Z,77.31
2019-02-10T06:12:33.014Z,77.33
2019-02-10T06:15:03.021Z,77.68
2019-02-10T06:17:33.835Z,76.86
2019-02-10T06:20:05.661Z,77.31
2019-02-10T06:22:34.621Z,77.44
2019-02-10T06:25:03.483Z,77.22
2019-02-10T06:27:33.520Z,77.20
2019-02-10T06:30:03.071Z,77.23
2019-02-10T06:32:33.042Z,77.32
2019-02-10T06:35:03.321Z,77.47
2019-02-10T06:37:33.022Z,77.23
2019-02-10T06:40:02.802Z,77.16
2019-02-10T06:42:32.642Z,77.27
2019-02-10T06:45:02.060Z,77.43
2019-02-10T06:47:32.531Z,77.43
2019-02-10T06:50:02.551Z,77.29
2019-02-10T06:52:32.660Z,77.29
2019-02-10T06:55:01.811Z,76.12
2019-02-10T06:57:31.684Z,76.03
2019-02-10T07:00:29.785Z,76.19
2019-02-10T07:03:49.575Z,73.94
2019-02-10T07:06:19.119Z,74.88
2019-02-10T07:08:48.879Z,74.88
2019-02-10T07:11:18.620Z,72.92
2019-02-10T07:13:53.423Z,73.72
2019-02-10T07:16:48.644Z,73.97
2019-02-10T07:20:03.107Z,73.97
2019-02-10T07:24:01.952Z,72.57
2019-02-10T07:26:55.835Z,72.98
2019-02-10T07:30:47.330Z,72.73
2019-02-10T07:34:27.032Z,72.11
2019-02-10T07:38:10.995Z,71.29
2019-02-10T07:41:43.320Z,71.71
2019-02-10T07:45:16.463Z,71.43
2019-02-10T07:48:25.486Z,71.25
2019-02-10T07:51:31.827Z,71.01
2019-02-10T07:55:34.655Z,71.01
2019-02-10T07:58:40.668Z,70.21
2019-02-10T08:02:05.768Z,69.23
2019-02-10T08:06:05.598Z,68.92
2019-02-10T08:09:19.269Z,68.39
2019-02-10T08:12:57.677Z,66.70
2019-02-10T08:16:17.852Z,65.99
2019-02-10T08:20:32.817Z,63.34
2019-02-10T08:23:52.833Z,62.48
2019-02-10T08:27:23.149Z,58.09
2019-02-10T08:30:50.544Z,57.13
2019-02-10T08:34:07.435Z,54.42
2019-02-10T08:37:52.993Z,51.08
2019-02-10T08:41:04.362Z,51.08
2019-02-10T08:45:37.605Z,49.89
2019-02-10T08:49:17.849Z,47.31
2019-02-10T08:52:35.058Z,47.31
2019-02-10T08:55:05.320Z,46.31
2019-02-10T08:57:34.981Z,46.33
2019-02-10T09:00:05.638Z,46.54
2019-02-10T09:02:34.657Z,46.77
2019-02-10T09:05:04.827Z,47.13
2019-02-10T09:07:35.519Z,47.46
2019-02-10T09:10:43.037Z,48.56
2019-02-10T09:13:13.171Z,48.69
2019-02-10T09:15:42.848Z,47.55
2019-02-10T09:18:12.807Z,47.22
2019-02-10T09:20:42.512Z,47.67
2019-02-10T09:23:12.490Z,47.71
2019-02-10T09:25:42.319Z,46.64
2019-02-10T09:28:13.470Z,46.64
2019-02-10T09:30:43.430Z,44.23
2019-02-10T09:33:12.733Z,43.30
2019-02-10T09:35:41.752Z,43.30
2019-02-10T09:38:10.720Z,43.31
2019-02-10T09:44:26.859Z,42.67
2019-02-10T09:46:56.858Z,41.84
2019-02-10T09:49:29.447Z,42.21
2019-02-10T09:51:59.185Z,40.99
2019-02-10T09:54:29.367Z,41.33
2019-02-10T09:56:59.369Z,41.04
2019-02-10T09:59:29.320Z,39.48
2019-02-10T10:01:59.092Z,40.60
2019-02-10T10:04:29.457Z,39.55
2019-02-10T10:07:00.870Z,40.24
2019-02-10T10:09:30.819Z,40.24
2019-02-10T10:12:00.868Z,38.38
2019-02-10T10:14:31.198Z,37.89
2019-02-10T10:17:01.464Z,36.92
2019-02-10T10:19:31.344Z,38.13
2019-02-10T10:22:01.717Z,38.13
2019-02-10T10:28:36.340Z,36.15
2019-02-10T10:31:06.423Z,36.20
2019-02-10T10:33:36.245Z,34.90
2019-02-10T10:36:06.009Z,34.02
2019-02-10T10:38:35.921Z,33.12
2019-02-10T10:41:05.876Z,32.64
2019-02-10T10:43:35.816Z,32.40
2019-02-10T10:46:05.520Z,31.69
2019-02-10T10:48:35.304Z,32.15
2019-02-10T10:51:05.102Z,31.82
2019-02-10T10:53:34.917Z,31.49
2019-02-10T10:56:05.071Z,32.00
2019-02-10T10:58:35.525Z,31.70
2019-02-10T11:01:05.580Z,29.96
2019-02-10T11:03:35.656Z,29.10
2019-02-10T11:06:04.569Z,29.10
2019-02-10T11:08:34.284Z,29.27
2019-02-10T11:11:04.310Z,30.28
2019-02-10T11:13:35.325Z,30.48
2019-02-10T11:16:05.916Z,31.23
2019-02-10T11:18:36.049Z,30.64
2019-02-10T11:21:09.130Z,31.43
2019-02-10T11:23:39.039Z,32.09
2019-02-10T11:26:09.143Z,32.21
2019-02-10T11:28:39.315Z,32.44
2019-02-10T11:31:09.307Z,32.17
2019-02-10T11:33:39.309Z,31.36
2019-02-10T11:36:09.310Z,30.98
2019-02-10T11:38:38.865Z,30.92
2019-02-10T11:41:09.160Z,30.67
2019-02-10T11:43:39.320Z,30.76
2019-02-10T11:46:10.307Z,30.71
2019-02-10T11:48:40.105Z,29.99
2019-02-10T11:51:10.134Z,29.75
2019-02-10T11:53:39.834Z,29.65
2019-02-10T11:56:09.606Z,31.00
2019-02-10T11:58:39.002Z,31.69
2019-02-10T12:01:09.436Z,32.14
2019-02-10T12:03:39.328Z,32.12
2019-02-10T12:06:09.295Z,31.87
2019-02-10T12:08:39.046Z,31.42
2019-02-10T12:11:09.352Z,31.26
2019-02-10T12:13:40.457Z,30.98
2019-02-10T12:16:10.097Z,31.45
2019-02-10T12:18:39.828Z,32.06
2019-02-10T12:21:10.459Z,32.76
2019-02-10T12:23:40.306Z,33.15
2019-02-10T12:26:10.313Z,33.15
2019-02-10T12:28:39.960Z,32.87
2019-02-10T12:31:09.825Z,32.36
2019-02-10T12:33:40.313Z,32.80
2019-02-10T12:36:10.112Z,33.14
2019-02-10T12:38:39.985Z,33.31
2019-02-10T12:41:10.054Z,33.42
2019-02-10T12:43:40.313Z,33.71
2019-02-10T12:46:10.115Z,34.28
2019-02-10T12:48:40.146Z,34.93
2019-02-10T12:51:10.325Z,35.04
2019-02-10T12:53:40.411Z,35.22
2019-02-10T12:56:10.671Z,36.33
2019-02-10T12:58:39.485Z,36.89
2019-02-10T13:01:09.387Z,38.59
2019-02-10T13:03:39.494Z,38.59
2019-02-10T13:06:09.742Z,38.84
2019-02-10T13:09:16.320Z,41.45
2019-02-10T13:11:46.574Z,43.77
2019-02-10T13:14:15.576Z,46.36
2019-02-10T13:16:46.372Z,48.42
2019-02-10T13:19:16.004Z,49.93
2019-02-10T13:21:46.115Z,50.91
2019-02-10T13:24:16.562Z,52.25
2019-02-10T13:26:45.843Z,54.42
2019-02-10T13:29:16.793Z,54.42
2019-02-10T13:31:46.839Z,57.59
2019-02-10T13:34:17.985Z,59.02
2019-02-10T13:36:48.120Z,61.86
2019-02-10T13:39:19.545Z,61.52
2019-02-10T13:41:46.652Z,61.08
2019-02-10T13:44:15.677Z,62.56
2019-02-10T13:46:45.339Z,63.25
2019-02-10T13:49:15.182Z,64.19
2019-02-10T13:51:45.321Z,62.96
2019-02-10T13:54:15.320Z,61.93
2019-02-10T13:56:45.317Z,64.66
2019-02-10T13:59:15.177Z,63.93
2019-02-10T14:01:45.478Z,63.93
2019-02-10T14:04:16.312Z,63.04
2019-02-10T14:06:46.324Z,62.07
2019-02-10T14:09:16.321Z,64.17
2019-02-10T14:11:46.320Z,64.18
2019-02-10T14:14:16.134Z,64.06
2019-02-10T14:16:46.438Z,63.86
2019-02-10T14:19:16.580Z,66.53
2019-02-10T14:21:45.756Z,65.08
2019-02-10T14:24:15.837Z,66.47
2019-02-10T14:26:45.830Z,66.47
2019-02-10T14:29:15.789Z,68.17
2019-02-10T14:31:45.760Z,67.86
2019-02-10T14:34:15.907Z,68.49
2019-02-10T14:36:46.263Z,69.76
2019-02-10T14:39:16.489Z,70.95
2019-02-10T14:41:45.537Z,69.71
2019-02-10T14:44:16.459Z,72.66
2019-02-10T14:46:46.159Z,72.66
2019-02-10T14:49:15.826Z,73.22
2019-02-10T14:51:46.061Z,70.81
2019-02-10T14:54:16.136Z,74.28
2019-02-10T14:56:46.424Z,73.05
2019-02-10T14:59:16.831Z,71.04
2019-02-10T15:01:46.533Z,72.78
2019-02-10T15:04:16.409Z,68.95
2019-02-10T15:06:47.141Z,68.95
2019-02-10T15:09:16.905Z,71.32
2019-02-10T15:11:46.848Z,68.83
2019-02-10T15:14:18.839Z,68.48
2019-02-10T15:16:48.647Z,68.49
2019-02-10T15:19:17.882Z,70.41
2019-02-10T15:21:47.991Z,70.57
2019-02-10T15:24:17.802Z,69.65
2019-02-10T15:26:48.116Z,69.12
2019-02-10T15:29:17.814Z,71.13
2019-02-10T15:31:47.642Z,70.75
2019-02-10T15:34:17.147Z,71.60
2019-02-10T15:36:47.117Z,73.64
2019-02-10T15:39:17.140Z,72.53
2019-02-10T15:41:46.890Z,75.88
2019-02-10T15:45:23.070Z,78.27
2019-02-10T15:47:53.321Z,74.80
2019-02-10T15:50:23.138Z,77.15
2019-02-10T15:52:53.156Z,76.03
2019-02-10T15:55:23.131Z,77.52
2019-02-10T15:57:53.320Z,77.26
2019-02-10T16:00:25.116Z,76.44
2019-02-10T16:02:55.104Z,76.50
2019-02-10T16:05:25.000Z,76.90
2019-02-10T16:07:54.875Z,76.63
2019-02-10T16:10:25.119Z,76.67
2019-02-10T16:12:55.596Z,74.71
2019-02-10T16:15:24.841Z,75.80
2019-02-10T16:17:54.968Z,76.57
2019-02-10T16:20:25.250Z,75.20
2019-02-10T16:22:55.851Z,74.91
2019-02-10T16:25:25.562Z,74.91
2019-02-10T16:27:54.702Z,74.50
2019-02-10T16:30:24.528Z,73.84
2019-02-10T16:32:54.537Z,73.55
2019-02-10T16:35:23.649Z,73.55
2019-02-10T16:37:52.883Z,72.97
2019-02-10T16:40:22.961Z,73.39
2019-02-10T16:42:52.886Z,73.36
2019-02-10T16:45:23.344Z,73.52
2019-02-10T16:47:53.880Z,73.72
2019-02-10T16:50:24.047Z,73.80
2019-02-10T16:52:54.852Z,72.66
2019-02-10T16:55:25.115Z,73.42
2019-02-10T16:57:55.322Z,74.04
2019-02-10T17:00:26.942Z,73.24
2019-02-10T17:02:57.706Z,72.37
2019-02-10T17:05:28.114Z,72.09
2019-02-10T17:07:58.308Z,72.53
2019-02-10T17:10:28.541Z,72.17
2019-02-10T17:12:58.597Z,71.82
2019-02-10T17:15:29.284Z,71.53
2019-02-10T17:17:59.662Z,71.86
2019-02-10T17:20:28.625Z,72.14
2019-02-10T17:22:58.479Z,72.08
2019-02-10T17:25:27.939Z,72.31
2019-02-10T17:27:58.748Z,71.05
2019-02-10T17:30:28.515Z,71.69
2019-02-10T17:32:58.595Z,71.17
2019-02-10T17:35:28.366Z,71.19
2019-02-10T17:37:58.556Z,71.19
2019-02-10T17:40:53.508Z,72.15
2019-02-10T17:43:28.887Z,72.15
2019-02-10T17:45:58.906Z,72.97
2019-02-10T17:48:28.955Z,72.41
2019-02-10T17:50:58.929Z,74.74
2019-02-10T17:53:29.420Z,75.23
2019-02-10T17:55:59.660Z,78.66
2019-02-10T17:58:28.852Z,78.66
2019-02-10T18:01:20.963Z,79.61
2019-02-10T18:03:50.839Z,79.85
2019-02-10T18:06:21.089Z,80.51
2019-02-10T18:08:51.112Z,79.45
2019-02-10T18:11:21.446Z,79.86
2019-02-10T18:13:51.319Z,78.41
2019-02-10T18:16:41.890Z,78.41
2019-02-10T18:19:34.868Z,76.59
2019-02-10T18:22:30.520Z,75.62
2019-02-10T18:25:22.228Z,75.86
2019-02-10T18:28:10.048Z,75.46
2019-02-10T18:31:19.425Z,74.83
2019-02-10T18:34:13.862Z,73.87
2019-02-10T18:37:05.700Z,71.74
2019-02-10T18:39:57.654Z,71.07
2019-02-10T18:42:38.961Z,71.66
2019-02-10T18:45:17.310Z,70.88
2019-02-10T18:47:53.696Z,70.83
2019-02-10T18:50:42.784Z,71.36
2019-02-10T18:53:26.364Z,70.66
2019-02-10T18:56:11.572Z,70.73
2019-02-10T18:58:54.402Z,71.24
2019-02-10T19:01:35.443Z,71.04
2019-02-10T19:04:33.690Z,71.04
2019-02-10T19:07:34.432Z,71.04
2019-02-10T19:10:15.321Z,70.94
2019-02-10T19:13:04.315Z,70.94
2019-02-10T19:15:47.185Z,71.19
2019-02-10T19:18:45.525Z,71.20
2019-02-10T19:21:33.037Z,70.05
2019-02-10T19:24:31.306Z,70.16
2019-02-10T19:27:22.776Z,70.11
2019-02-10T19:30:14.748Z,68.60
2019-02-10T19:32:49.689Z,68.95
2019-02-10T19:35:38.860Z,68.22
2019-02-10T19:38:30.641Z,67.26
2019-02-10T19:41:10.051Z,66.48
2019-02-10T19:43:55.849Z,66.12
2019-02-10T19:46:41.500Z,65.44
2019-02-10T19:49:46.058Z,64.92
2019-02-10T19:52:44.553Z,64.92
2019-02-10T19:55:20.562Z,65.89
2019-02-10T19:58:03.702Z,65.87
2019-02-10T20:00:43.272Z,66.72
2019-02-10T20:03:31.329Z,67.49
2019-02-10T20:06:19.322Z,68.03
2019-02-10T20:09:26.211Z,67.33
2019-02-10T20:12:04.433Z,68.32
2019-02-10T20:14:42.256Z,68.40
2019-02-10T20:17:37.122Z,67.47
2019-02-10T20:20:28.516Z,68.10
2019-02-10T20:23:10.034Z,67.33
2019-02-10T20:25:59.504Z,67.33
2019-02-10T20:28:57.584Z,66.61
2019-02-10T20:31:57.774Z,65.20
2019-02-10T20:34:43.686Z,64.52
2019-02-10T20:37:21.486Z,65.99
2019-02-10T20:40:22.093Z,66.67
2019-02-10T20:43:29.526Z,66.54
2019-02-10T20:46:27.698Z,68.77
2019-02-10T20:49:22.017Z,68.77
2019-02-10T20:52:03.018Z,69.13
2019-02-10T20:54:50.637Z,69.41
2019-02-10T20:57:38.411Z,70.30
2019-02-10T21:00:18.504Z,71.16
2019-02-10T21:03:06.981Z,71.16
2019-02-10T21:06:02.673Z,71.71
2019-02-10T21:08:38.560Z,72.56
2019-02-10T21:11:26.432Z,73.78
2019-02-10T21:14:14.678Z,75.24
2019-02-10T21:17:10.312Z,75.24
2019-02-10T21:20:05.949Z,76.90
2019-02-10T21:22:45.535Z,76.98
2019-02-10T21:25:35.327Z,78.83
2019-02-10T21:28:24.609Z,78.83
2019-02-10T21:31:20.027Z,80.75
2019-02-10T21:34:11.453Z,79.73
2019-02-10T21:37:09.067Z,80.41
2019-02-10T21:40:07.544Z,79.87
2019-02-10T21:43:02.926Z,79.45
2019-02-10T21:45:44.634Z,79.45
2019-02-10T21:48:21.017Z,79.23
2019-02-10T21:50:50.798Z,80.07
2019-02-10T21:53:20.665Z,79.14
2019-02-10T21:55:50.550Z,79.51
2019-02-10T21:58:19.552Z,79.11
2019-02-10T22:00:48.311Z,79.95
2019-02-10T22:03:18.060Z,79.18
2019-02-10T22:05:47.871Z,78.52
2019-02-10T22:08:18.073Z,78.42
2019-02-10T22:10:48.040Z,78.35
2019-02-10T22:13:17.842Z,78.30
2019-02-10T22:15:47.361Z,78.14
2019-02-10T22:18:17.020Z,78.32
2019-02-10T22:20:46.645Z,77.90
2019-02-10T22:23:16.665Z,79.20
2019-02-10T22:25:46.110Z,78.46
2019-02-10T22:28:15.630Z,77.87
2019-02-10T22:30:45.165Z,78.27
2019-02-10T22:33:14.665Z,78.27
2019-02-10T22:35:44.251Z,76.83
2019-02-10T22:38:13.672Z,76.83
2019-02-10T22:40:42.794Z,76.62
2019-02-10T22:43:12.329Z,76.65
2019-02-10T22:45:42.017Z,76.83
2019-02-10T22:48:13.674Z,76.90
2019-02-10T22:50:42.984Z,76.02
2019-02-10T22:53:12.547Z,76.62
2019-02-10T22:55:41.274Z,75.52
2019-02-10T22:58:10.957Z,75.76
2019-02-10T23:00:54.513Z,75.81
2019-02-10T23:06:20.804Z,74.76
2019-02-10T23:08:50.320Z,76.41
2019-02-10T23:11:19.648Z,76.16
2019-02-10T23:13:48.840Z,75.89
2019-02-10T23:16:18.687Z,76.51
2019-02-10T23:18:47.488Z,75.11
2019-02-10T23:21:16.942Z,76.02
2019-02-10T23:23:46.441Z,76.02
2019-02-10T23:26:16.006Z,75.85
2019-02-10T23:28:45.774Z,75.48
2019-02-10T23:31:15.404Z,75.25
2019-02-10T23:33:45.140Z,75.49
2019-02-10T23:36:15.056Z,74.41
2019-02-10T23:38:45.006Z,75.25
2019-02-10T23:41:14.321Z,74.58
2019-02-10T23:43:44.189Z,74.65
2019-02-10T23:46:14.639Z,74.34
2019-02-10T23:48:44.333Z,74.87
2019-02-10T23:51:14.323Z,74.87
2019-02-10T23:53:44.028Z,75.94
2019-02-10T23:56:14.091Z,75.48
2019-02-10T23:58:44.125Z,75.65
